Refine Search
Year Filed

2014 ×

Court

Louisiana Eastern ×

Click on desired case number or refine your search to continue

Case TitleCourtCase NoChpDate FiledClosedDisposition
Euro Tech Automotive, Inc.Louisiana Eastern2:14-bk-13362712/17/2014
Crazy Johnnie's Cafe, Inc.Louisiana Eastern2:14-bk-13326712/12/2014
KLC Properties, LLCLouisiana Eastern2:14-bk-13361712/17/2014
R. J. Marchand Contractor Specialties, Inc.Louisiana Eastern2:14-bk-13234712/03/2014
Cologne's Custom Quality Cabinets, Inc.Louisiana Eastern2:14-bk-13205711/26/201404/13/2016Discharge Not Applicable
AKD Investments, LLCLouisiana Eastern2:14-bk-130761111/12/2014
EVS Auto Sales, L.L.C.Louisiana Eastern2:14-bk-13152711/21/2014
Louisiana Interests, Inc.Louisiana Eastern2:14-bk-127721110/15/2014
800 Bourbon Street, LLCLouisiana Eastern2:14-bk-127701110/15/201406/05/2020Discharge Not Applicable 06/05/2020
Belladoggie, Inc.Louisiana Eastern2:14-bk-129251110/30/201405/27/2015Dismissed for Other Reason 04/28/2015
BARMMP LLCLouisiana Eastern2:14-bk-12784710/16/2014
Boiling Point, INCLouisiana Eastern2:14-bk-12632709/30/2014
3LJ'S Cafe' Services & Sports Bar, LLCLouisiana Eastern2:14-bk-125441109/22/201412/03/2014Dismissed for Other Reason 10/21/2014
Glen E. Nave Heating and Air Conditioning Company,Louisiana Eastern2:14-bk-12589709/25/2014
Z Bayou, LLCLouisiana Eastern2:14-bk-124401109/11/2014
Premier Rampart Condos, LLCLouisiana Eastern2:14-bk-12442709/11/201410/21/2015Discharge Not Applicable
Julie's Restaurant, LLCLouisiana Eastern2:14-bk-12317708/29/2014
BTN Corporation, Successor in Interest to BrantonLouisiana Eastern2:14-bk-12357709/02/2014
Alto Trailer Sales, Inc.Louisiana Eastern2:14-bk-12461709/12/201410/13/2015Standard Discharge
Bridge Foods, Inc.Louisiana Eastern2:14-bk-123581109/02/2014
Posh Cupcakery LLCLouisiana Eastern2:14-bk-12483709/16/2014
Decorator Shoppe Lighting Center, Inc.Louisiana Eastern2:14-bk-12223708/21/2014
F.F.A. Establishment, LLCLouisiana Eastern2:14-bk-11904707/23/2014
Armond Meats, Inc.Louisiana Eastern2:14-bk-11706706/30/2014
Aberta Inc. d/b/a Chicken Box Cafeteria and MarketLouisiana Eastern2:14-bk-115961106/20/201411/20/2014Dismissed for Other Reason 09/04/2014
Stanley of New Orleans, L.L.C.Louisiana Eastern2:14-bk-115061106/12/201404/27/2017Discharge Not Applicable
The Paint Factory, L.L.C.Louisiana Eastern2:14-bk-115081106/12/2014
B Xpress-Elysian Fields, LLCLouisiana Eastern2:14-bk-115951106/20/2014
The New World Labor Force, L.L.C.Louisiana Eastern2:14-bk-11509706/12/2014
Scott Boswell Enterprises, L.L.C.Louisiana Eastern2:14-bk-11510706/12/2014
Rodgers and Rodgers Enterprises,LLCLouisiana Eastern2:14-bk-117151107/01/2014
ATCO Services, LLCLouisiana Eastern2:14-bk-11494706/11/201410/05/2015Dismissed for Other Reason 06/12/2014
HMD Business Holdings & Consulting, LLCLouisiana Eastern2:14-bk-11466706/08/2014
3LJ'S Cafe' Services & Sports Bar, LLCLouisiana Eastern2:14-bk-111111105/06/201408/20/2014Dismissed for Other Reason 07/03/2014
Indo-Ameri Soft, L.L.C.Louisiana Eastern2:14-bk-11174705/12/2014
La-Tex Water 2, LLCLouisiana Eastern2:14-bk-11257705/20/201409/13/2016Discharge Not Applicable
Thad Devier Holding Company, LLCLouisiana Eastern2:14-bk-112291105/16/201410/31/2016Standard Discharge
Devier Design Build, LLCLouisiana Eastern2:14-bk-112311105/16/2014
Premier Rampart Condos, LLCLouisiana Eastern2:14-bk-10917704/17/2014
840 Tchoupitoulas, LLCLouisiana Eastern2:14-bk-109021104/16/201405/13/2016Discharge Not Applicable 05/13/2016
PLUMLINE PROPERTIES, LLCLouisiana Eastern2:14-bk-110051104/25/201403/10/2015Dismissed for Other Reason 12/05/2014
RCR Developments, L.L.C.Louisiana Eastern2:14-bk-10943704/21/201401/05/2015Discharge Not Applicable
PLUMLINE INVESTING, LLCLouisiana Eastern2:14-bk-110041104/25/201403/10/2015Dismissed for Other Reason 12/05/2014
Lutz Welding Service, IncLouisiana Eastern2:14-bk-10958704/22/2014
Re-Cycle, L.L.C.Louisiana Eastern2:14-bk-10739703/30/2014
Supreme Homebuilders,LLCLouisiana Eastern2:14-bk-10639703/20/2014
Discovery Daycare Learning Center, LLCLouisiana Eastern2:14-bk-10681703/26/201409/10/2015Discharge Not Applicable
Blenheim Energy, Inc.Louisiana Eastern2:14-bk-10759703/31/2014
Lafeet, Inc.Louisiana Eastern2:14-bk-10657703/24/2014
Unlimited Mortgages Express, LLCLouisiana Eastern2:14-bk-107711104/01/2014